Time;durP1;ratioP1;P1;durP2;ratioP2;P2;SDS_P1;SDS_P2;PMS_P1;PMS_P2;Temp;Humidity;BMP_temperature;BMP_pressure;BME280_temperature;BME280_humidity;BME280_pressure;Samples;Min_cycle;Max_cycle;Signal;HPM_P1;HPM_P2
2022/11/27 00:02:16;;;;;;;3.95;0.57;;;;;;;;;;6278168;22;20330;-94
2022/11/27 00:04:41;;;;;;;3.88;0.50;;;;;;;;;;6279075;22;20390;-95
2022/11/27 00:07:06;;;;;;;2.58;0.63;;;;;;;;;;6278879;22;20027;-94
2022/11/27 00:09:34;;;;;;;2.95;0.50;;;;;;;;;;6277850;22;20096;-95
2022/11/27 00:11:59;;;;;;;2.22;0.60;;;;;;;;;;6279560;22;20015;-95
2022/11/27 00:14:28;;;;;;;3.60;0.60;;;;;;;;;;6307794;22;20064;-95
2022/11/27 00:16:53;;;;;;;1.98;0.43;;;;;;;;;;6281137;22;20088;-95
2022/11/27 00:19:22;;;;;;;2.63;0.65;;;;;;;;;;6281397;22;20019;-96
2022/11/27 00:21:47;;;;;;;2.33;0.68;;;;;;;;;;6282377;22;20106;-95
2022/11/27 00:24:15;;;;;;;2.65;0.60;;;;;;;;;;6282889;22;20003;-96
2022/11/27 00:26:40;;;;;;;3.50;0.80;;;;;;;;;;6283604;22;20052;-96
2022/11/27 00:29:07;;;;;;;1.90;0.60;;;;;;;;;;6283311;22;20003;-95
2022/11/27 00:31:36;;;;;;;2.78;0.80;;;;;;;;;;6299861;22;20002;-95
2022/11/27 00:34:03;;;;;;;3.10;0.70;;;;;;;;;;6302691;22;20017;-95
2022/11/27 00:36:32;;;;;;;4.28;0.85;;;;;;;;;;6303263;22;20003;-96
2022/11/27 00:39:01;;;;;;;2.63;0.73;;;;;;;;;;6302616;22;20002;-96
2022/11/27 00:41:28;;;;;;;3.65;0.90;;;;;;;;;;6305631;22;20064;-96
2022/11/27 00:44:10;;;;;;;3.20;0.80;;;;;;;;;;6305929;22;19991;-96
2022/11/27 00:46:36;;;;;;;1.90;0.60;;;;;;;;;;6303814;22;20022;-96
2022/11/27 00:49:34;;;;;;;1.27;0.40;;;;;;;;;;6301891;22;20049;-96
2022/11/27 00:51:59;;;;;;;2.88;0.65;;;;;;;;;;6328776;22;20011;-96
2022/11/27 00:54:28;;;;;;;3.38;0.73;;;;;;;;;;6299515;22;20010;-96
2022/11/27 00:57:26;;;;;;;3.75;0.80;;;;;;;;;;6300910;22;20003;-96
2022/11/27 00:59:52;;;;;;;3.47;0.93;;;;;;;;;;6295901;22;20018;-96
2022/11/27 01:02:24;;;;;;;3.28;0.90;;;;;;;;;;6296793;22;20007;-96
2022/11/27 01:04:50;;;;;;;4.60;1.20;;;;;;;;;;6295650;22;20014;-96
2022/11/27 01:07:19;;;;;;;5.32;1.30;;;;;;;;;;6296655;22;20014;-96
2022/11/27 01:09:47;;;;;;;5.47;1.30;;;;;;;;;;6297746;22;19995;-96
2022/11/27 01:12:16;;;;;;;4.40;1.27;;;;;;;;;;6279042;22;20003;-93
2022/11/27 01:15:15;;;;;;;4.82;1.48;;;;;;;;;;6280477;22;20021;-96
2022/11/27 01:18:31;;;;;;;;;;;;;;;;;;;;;
2022/11/27 01:24:29;;;;;;;;;;;;;;;;;;;;;
2022/11/27 01:27:07;;;;;;;5.80;1.70;;;;;;;;;;6244231;22;20080;-96
2022/11/27 01:36:04;;;;;;;;;;;;;;;;;;;;;
2022/11/27 01:38:44;;;;;;;5.55;1.70;;;;;;;;;;6210187;23;20491;-96
2022/11/27 01:41:48;;;;;;;6.57;1.98;;;;;;;;;;6191758;23;20041;-96
2022/11/27 01:44:39;;;;;;;5.47;1.80;;;;;;;;;;6156445;23;20002;-96
2022/11/27 01:54:22;;;;;;;6.60;2.10;;;;;;;;;;6193922;23;20081;-96
2022/11/27 01:57:04;;;;;;;7.47;2.60;;;;;;;;;;6168314;23;20072;-96
2022/11/27 02:02:38;;;;;;;5.47;2.10;;;;;;;;;;6190914;23;20082;-96
2022/11/27 02:05:04;;;;;;;9.40;2.47;;;;;;;;;;6160168;23;20060;-96
2022/11/27 02:11:05;;;;;;;8.80;2.28;;;;;;;;;;6195874;23;20031;-96
2022/11/27 02:14:00;;;;;;;7.35;2.38;;;;;;;;;;6168328;23;20012;-96
2022/11/27 02:17:09;;;;;;;8.27;2.58;;;;;;;;;;6250215;23;20000;-96
2022/11/27 02:20:19;;;;;;;8.00;2.45;;;;;;;;;;6280510;22;20011;-96
2022/11/27 02:23:25;;;;;;;;;;;;;;;;;;;;;
2022/11/27 02:26:08;;;;;;;10.73;2.20;;;;;;;;;;6231614;23;20358;-96
2022/11/27 02:32:22;;;;;;;8.35;2.42;;;;;;;;;;6226928;23;20023;-96
2022/11/27 02:35:06;;;;;;;9.63;2.47;;;;;;;;;;6132543;23;20004;-96
2022/11/27 02:41:09;;;;;;;7.57;1.88;;;;;;;;;;6196715;23;20549;-96
2022/11/27 02:44:05;;;;;;;9.10;2.38;;;;;;;;;;6141331;23;19997;-96
2022/11/27 02:50:21;;;;;;;8.20;2.17;;;;;;;;;;6149650;23;20082;-96
2022/11/27 02:52:48;;;;;;;13.70;2.53;;;;;;;;;;6129985;22;20685;-89
2022/11/27 02:55:15;;;;;;;8.48;2.10;;;;;;;;;;6238812;22;20069;-89
2022/11/27 02:57:42;;;;;;;11.57;2.30;;;;;;;;;;6236857;22;20031;-89
2022/11/27 03:06:08;;;;;;;10.88;2.00;;;;;;;;;;6292548;22;20076;-89
2022/11/27 03:08:37;;;;;;;9.50;2.13;;;;;;;;;;6265622;22;20014;-91
2022/11/27 03:11:07;;;;;;;10.32;1.80;;;;;;;;;;6269211;22;20004;-89
2022/11/27 03:13:36;;;;;;;10.20;1.77;;;;;;;;;;6265482;22;19995;-89
2022/11/27 03:16:05;;;;;;;11.40;1.88;;;;;;;;;;6269518;22;20329;-91
2022/11/27 03:18:38;;;;;;;8.00;1.65;;;;;;;;;;6268374;22;20106;-89
2022/11/27 03:21:17;;;;;;;16.70;2.30;;;;;;;;;;6269821;22;20012;-88
2022/11/27 03:23:42;;;;;;;9.25;1.58;;;;;;;;;;6298669;22;20038;-89
2022/11/27 03:26:08;;;;;;;13.05;2.30;;;;;;;;;;6271757;22;20116;-88
2022/11/27 03:28:37;;;;;;;11.52;1.92;;;;;;;;;;6271585;22;20063;-89
2022/11/27 03:31:02;;;;;;;11.27;2.10;;;;;;;;;;6270837;22;20008;-89
2022/11/27 03:33:30;;;;;;;12.90;1.92;;;;;;;;;;6299311;22;20082;-89
2022/11/27 03:35:55;;;;;;;23.40;2.35;;;;;;;;;;6270034;22;20011;-89
2022/11/27 03:38:21;;;;;;;13.93;2.42;;;;;;;;;;6269666;22;20007;-89
2022/11/27 03:41:07;;;;;;;13.38;2.17;;;;;;;;;;6265216;22;20000;-88
2022/11/27 03:43:38;;;;;;;14.10;2.10;;;;;;;;;;6264099;22;20057;-88
2022/11/27 03:46:16;;;;;;;13.43;2.15;;;;;;;;;;6268208;22;20014;-89
2022/11/27 03:48:49;;;;;;;13.18;2.58;;;;;;;;;;6261534;22;20007;-89
2022/11/27 03:51:34;;;;;;;18.52;2.55;;;;;;;;;;6288494;22;20034;-89
2022/11/27 03:54:12;;;;;;;14.70;1.98;;;;;;;;;;6265235;22;20106;-89
2022/11/27 03:57:07;;;;;;;15.73;2.63;;;;;;;;;;6269785;22;20052;-88
2022/11/27 03:59:35;;;;;;;13.82;2.17;;;;;;;;;;6268609;22;20067;-89
2022/11/27 04:02:00;;;;;;;11.77;2.00;;;;;;;;;;6267542;22;20000;-89
2022/11/27 04:04:26;;;;;;;14.40;2.40;;;;;;;;;;6270581;22;20022;-91
2022/11/27 04:06:54;;;;;;;16.95;2.60;;;;;;;;;;6268895;22;20359;-88
2022/11/27 04:09:24;;;;;;;10.48;1.98;;;;;;;;;;6300555;22;20021;-89
2022/11/27 04:11:56;;;;;;;15.55;2.70;;;;;;;;;;6274323;22;20019;-89
2022/11/27 04:14:24;;;;;;;14.90;2.13;;;;;;;;;;6301075;22;20749;-89
2022/11/27 04:16:55;;;;;;;15.68;2.13;;;;;;;;;;6301392;22;20065;-88
2022/11/27 04:19:20;;;;;;;15.07;2.28;;;;;;;;;;6272194;22;20007;-89
2022/11/27 04:21:46;;;;;;;17.63;2.47;;;;;;;;;;6273515;22;20520;-89
2022/11/27 04:24:11;;;;;;;17.33;2.92;;;;;;;;;;6270417;22;20371;-89
2022/11/27 04:26:42;;;;;;;12.57;2.10;;;;;;;;;;6269388;22;20505;-89
2022/11/27 04:29:07;;;;;;;16.35;3.20;;;;;;;;;;6269866;22;20003;-88
2022/11/27 04:31:36;;;;;;;15.70;2.75;;;;;;;;;;6270062;22;20416;-89
2022/11/27 04:34:01;;;;;;;15.63;2.58;;;;;;;;;;6268828;22;20893;-91
2022/11/27 04:36:27;;;;;;;19.38;2.55;;;;;;;;;;6269661;22;20011;-88
2022/11/27 04:38:54;;;;;;;20.35;2.83;;;;;;;;;;6296674;22;20328;-89
2022/11/27 04:41:22;;;;;;;19.13;2.38;;;;;;;;;;6269964;22;20092;-89
2022/11/27 04:43:48;;;;;;;18.15;2.55;;;;;;;;;;6297037;22;19991;-89
2022/11/27 04:46:13;;;;;;;13.77;2.08;;;;;;;;;;6296059;22;20070;-89
2022/11/27 04:48:46;;;;;;;18.77;3.08;;;;;;;;;;6297676;22;20000;-89
2022/11/27 04:51:22;;;;;;;15.30;2.85;;;;;;;;;;6269860;22;20011;-89
2022/11/27 04:53:49;;;;;;;18.33;2.70;;;;;;;;;;6264444;22;20030;-89
2022/11/27 04:56:26;;;;;;;22.23;2.80;;;;;;;;;;6270951;22;20007;-89
2022/11/27 04:58:59;;;;;;;20.60;3.10;;;;;;;;;;6266458;22;20003;-90
2022/11/27 05:01:24;;;;;;;14.70;2.60;;;;;;;;;;6297299;22;19996;-91
2022/11/27 05:03:50;;;;;;;18.48;2.47;;;;;;;;;;6296535;22;20088;-89
2022/11/27 05:06:21;;;;;;;24.38;3.10;;;;;;;;;;6269662;22;19999;-88
2022/11/27 05:08:58;;;;;;;21.92;3.10;;;;;;;;;;6296138;22;20007;-89
2022/11/27 05:11:24;;;;;;;18.38;3.45;;;;;;;;;;6263014;22;20023;-90
2022/11/27 05:16:42;;;;;;;19.42;3.22;;;;;;;;;;6298900;22;20014;-90
2022/11/27 05:19:11;;;;;;;20.85;3.25;;;;;;;;;;6270343;22;20014;-90
2022/11/27 05:21:44;;;;;;;21.48;3.65;;;;;;;;;;6265438;22;20742;-90
2022/11/27 05:24:10;;;;;;;31.48;4.50;;;;;;;;;;6271917;22;20458;-90
2022/11/27 05:26:57;;;;;;;26.35;3.63;;;;;;;;;;6267294;22;20004;-90
2022/11/27 05:32:18;;;;;;;26.60;4.38;;;;;;;;;;6298374;22;20026;-87
2022/11/27 05:34:50;;;;;;;29.88;4.57;;;;;;;;;;6265089;22;20003;-89
2022/11/27 05:37:19;;;;;;;26.33;3.78;;;;;;;;;;6288261;22;20060;-89
2022/11/27 05:39:44;;;;;;;28.70;3.75;;;;;;;;;;6271787;22;20072;-88
2022/11/27 05:42:17;;;;;;;27.20;4.32;;;;;;;;;;6299491;22;20011;-89
2022/11/27 05:44:43;;;;;;;27.25;4.32;;;;;;;;;;6265134;22;20000;-91
2022/11/27 05:47:08;;;;;;;35.10;4.60;;;;;;;;;;6268135;22;20057;-91
2022/11/27 05:49:42;;;;;;;31.23;4.70;;;;;;;;;;6268526;22;20070;-91
2022/11/27 05:52:07;;;;;;;29.40;4.53;;;;;;;;;;6291699;22;20003;-91
2022/11/27 05:54:43;;;;;;;30.30;3.85;;;;;;;;;;6312911;22;20042;-91
2022/11/27 05:57:09;;;;;;;32.13;5.03;;;;;;;;;;6269008;22;20011;-91
2022/11/27 05:59:52;;;;;;;34.42;4.82;;;;;;;;;;6269465;22;20060;-90
2022/11/27 06:02:37;;;;;;;40.33;5.45;;;;;;;;;;6296151;22;20070;-91
2022/11/27 06:05:03;;;;;;;39.00;5.22;;;;;;;;;;6294952;22;20050;-90
2022/11/27 06:07:40;;;;;;;37.00;5.05;;;;;;;;;;6296012;22;20587;-91
2022/11/27 06:10:06;;;;;;;33.05;5.10;;;;;;;;;;6271271;22;20042;-91
2022/11/27 06:12:31;;;;;;;41.45;5.32;;;;;;;;;;6271811;22;20003;-92
2022/11/27 06:14:57;;;;;;;32.83;4.95;;;;;;;;;;6271756;22;20044;-88
2022/11/27 06:17:22;;;;;;;30.80;6.13;;;;;;;;;;6296270;22;20023;-89
2022/11/27 06:19:51;;;;;;;45.60;5.20;;;;;;;;;;6267593;22;20381;-89
2022/11/27 06:22:23;;;;;;;33.05;5.28;;;;;;;;;;6268102;22;20007;-92
2022/11/27 06:24:58;;;;;;;37.17;6.57;;;;;;;;;;6268868;22;20014;-91
2022/11/27 06:27:30;;;;;;;30.83;4.65;;;;;;;;;;6296012;22;20023;-91
2022/11/27 06:30:00;;;;;;;31.73;4.85;;;;;;;;;;6266941;22;20039;-91
2022/11/27 06:32:31;;;;;;;33.58;5.50;;;;;;;;;;6268445;22;20003;-91
2022/11/27 06:35:00;;;;;;;34.20;5.03;;;;;;;;;;6267660;22;20076;-90
2022/11/27 06:37:31;;;;;;;32.30;5.28;;;;;;;;;;6268758;22;20064;-91
2022/11/27 06:40:03;;;;;;;33.10;5.65;;;;;;;;;;6298969;22;20014;-91
2022/11/27 06:42:34;;;;;;;33.17;5.67;;;;;;;;;;6272353;22;20332;-91
2022/11/27 06:44:59;;;;;;;30.85;5.00;;;;;;;;;;6299123;22;20216;-91
2022/11/27 06:47:25;;;;;;;30.90;4.85;;;;;;;;;;6299030;22;19999;-90
2022/11/27 06:49:52;;;;;;;33.08;4.90;;;;;;;;;;6298782;22;20500;-91
2022/11/27 06:52:18;;;;;;;28.70;4.22;;;;;;;;;;6271531;22;20007;-90
2022/11/27 06:54:46;;;;;;;27.55;5.07;;;;;;;;;;6272685;22;20484;-91
2022/11/27 06:57:12;;;;;;;39.30;5.45;;;;;;;;;;6272540;22;20007;-88
2022/11/27 06:59:37;;;;;;;35.78;4.60;;;;;;;;;;6299263;22;20011;-91
2022/11/27 07:02:04;;;;;;;34.92;4.88;;;;;;;;;;6271520;22;20015;-91
2022/11/27 07:04:29;;;;;;;27.63;4.85;;;;;;;;;;6297924;22;20065;-88
2022/11/27 07:06:54;;;;;;;37.58;5.10;;;;;;;;;;6298872;22;19995;-91
2022/11/27 07:09:23;;;;;;;42.60;5.68;;;;;;;;;;6298443;22;20018;-91
2022/11/27 07:11:48;;;;;;;33.53;5.53;;;;;;;;;;6269362;22;20085;-90
2022/11/27 07:14:13;;;;;;;40.03;5.55;;;;;;;;;;6297155;22;20655;-90
2022/11/27 07:16:39;;;;;;;33.35;4.70;;;;;;;;;;6296351;22;20140;-90
2022/11/27 07:19:06;;;;;;;33.28;4.53;;;;;;;;;;6270537;22;20356;-90
2022/11/27 07:21:38;;;;;;;34.28;5.25;;;;;;;;;;6269772;22;20014;-90
2022/11/27 07:24:03;;;;;;;27.95;5.32;;;;;;;;;;6269179;22;19995;-90
2022/11/27 07:26:29;;;;;;;34.88;4.70;;;;;;;;;;6271435;22;20011;-90
2022/11/27 07:28:58;;;;;;;28.60;4.10;;;;;;;;;;6273567;22;19995;-90
2022/11/27 07:31:27;;;;;;;35.13;5.18;;;;;;;;;;6272733;22;20000;-90
2022/11/27 07:33:59;;;;;;;31.88;4.90;;;;;;;;;;6273250;22;20025;-90
2022/11/27 07:36:26;;;;;;;29.35;5.65;;;;;;;;;;6299260;22;20007;-90
2022/11/27 07:38:52;;;;;;;35.55;5.07;;;;;;;;;;6297916;22;20056;-90
2022/11/27 07:41:17;;;;;;;24.95;4.25;;;;;;;;;;6269141;22;20676;-90
2022/11/27 07:43:43;;;;;;;38.90;5.00;;;;;;;;;;6269787;22;20480;-90
2022/11/27 07:46:15;;;;;;;38.10;5.53;;;;;;;;;;6298927;22;19996;-90
2022/11/27 07:48:41;;;;;;;46.40;5.47;;;;;;;;;;6297543;22;20050;-89
2022/11/27 07:51:10;;;;;;;37.75;5.25;;;;;;;;;;6269511;22;20011;-89
2022/11/27 07:53:37;;;;;;;34.10;5.20;;;;;;;;;;6267839;22;20067;-88
2022/11/27 07:56:02;;;;;;;25.92;4.30;;;;;;;;;;6296034;22;20290;-91
2022/11/27 07:58:28;;;;;;;31.60;4.72;;;;;;;;;;6266594;22;20010;-91
2022/11/27 08:00:54;;;;;;;29.77;4.47;;;;;;;;;;6269145;22;20007;-91
2022/11/27 08:03:20;;;;;;;36.25;5.72;;;;;;;;;;6270630;22;20127;-87
2022/11/27 08:05:51;;;;;;;25.50;4.05;;;;;;;;;;6271314;22;19999;-87
2022/11/27 08:08:17;;;;;;;28.33;4.45;;;;;;;;;;6270648;22;20051;-90
2022/11/27 08:10:45;;;;;;;32.05;5.35;;;;;;;;;;6272001;22;20003;-88
2022/11/27 08:13:10;;;;;;;35.85;5.05;;;;;;;;;;6270841;22;19999;-90
2022/11/27 08:15:36;;;;;;;28.38;4.28;;;;;;;;;;6270614;22;20488;-90
2022/11/27 08:18:02;;;;;;;26.92;4.80;;;;;;;;;;6270360;22;20006;-90
2022/11/27 08:20:27;;;;;;;36.28;4.80;;;;;;;;;;6271821;22;20064;-89
2022/11/27 08:22:52;;;;;;;31.67;4.13;;;;;;;;;;6298605;22;20661;-88
2022/11/27 08:25:18;;;;;;;33.17;5.00;;;;;;;;;;6271511;22;20003;-88
2022/11/27 08:27:43;;;;;;;36.20;5.03;;;;;;;;;;6273002;22;20026;-87
2022/11/27 08:30:09;;;;;;;36.78;4.80;;;;;;;;;;6273122;22;20568;-88
2022/11/27 08:32:37;;;;;;;34.33;5.32;;;;;;;;;;6272898;22;20014;-88
2022/11/27 08:35:02;;;;;;;35.72;5.25;;;;;;;;;;6271976;22;20116;-90
2022/11/27 08:37:28;;;;;;;31.48;4.55;;;;;;;;;;6271463;22;20519;-90
2022/11/27 08:39:53;;;;;;;34.80;4.78;;;;;;;;;;6297632;22;20082;-90
2022/11/27 08:42:27;;;;;;;31.27;4.43;;;;;;;;;;6270700;22;20007;-90
2022/11/27 08:44:53;;;;;;;29.17;4.30;;;;;;;;;;6271323;22;20006;-90
2022/11/27 08:47:18;;;;;;;26.42;4.57;;;;;;;;;;6297944;22;20007;-90
2022/11/27 08:49:43;;;;;;;39.25;5.10;;;;;;;;;;6269922;22;20087;-90
2022/11/27 08:52:12;;;;;;;36.97;5.10;;;;;;;;;;6299233;22;20015;-90
2022/11/27 08:54:37;;;;;;;32.75;5.13;;;;;;;;;;6270858;22;20000;-89
2022/11/27 08:57:06;;;;;;;38.63;5.82;;;;;;;;;;6269861;22;20144;-89
2022/11/27 08:59:35;;;;;;;28.40;4.95;;;;;;;;;;6296999;22;20060;-88
2022/11/27 09:02:01;;;;;;;36.88;5.40;;;;;;;;;;6268719;22;20011;-88
2022/11/27 09:04:32;;;;;;;32.53;4.63;;;;;;;;;;6243877;22;20149;-88
2022/11/27 09:06:57;;;;;;;31.58;5.00;;;;;;;;;;6240590;22;19996;-90
2022/11/27 09:09:23;;;;;;;41.65;5.55;;;;;;;;;;6235456;22;20447;-89
2022/11/27 09:11:52;;;;;;;40.78;5.10;;;;;;;;;;6263909;22;20559;-89
2022/11/27 09:14:18;;;;;;;33.67;5.20;;;;;;;;;;6236714;22;20019;-89
2022/11/27 09:16:43;;;;;;;30.15;5.43;;;;;;;;;;6233773;22;20007;-89
2022/11/27 09:19:08;;;;;;;39.90;4.45;;;;;;;;;;6236917;22;20015;-89
2022/11/27 09:21:34;;;;;;;33.17;5.30;;;;;;;;;;6263656;22;20008;-89
2022/11/27 09:24:00;;;;;;;31.42;5.03;;;;;;;;;;6235244;22;20749;-88
2022/11/27 09:26:27;;;;;;;27.50;4.70;;;;;;;;;;6236846;22;20008;-89
2022/11/27 09:28:53;;;;;;;28.55;4.53;;;;;;;;;;6235250;22;20011;-91
2022/11/27 09:31:19;;;;;;;35.25;5.85;;;;;;;;;;6262934;22;20602;-89
2022/11/27 09:33:45;;;;;;;29.70;4.50;;;;;;;;;;6237500;22;20003;-89
2022/11/27 09:36:18;;;;;;;31.23;6.78;;;;;;;;;;6236796;22;20011;-89
2022/11/27 09:38:43;;;;;;;21.42;4.65;;;;;;;;;;6264553;22;20039;-89
2022/11/27 09:41:09;;;;;;;26.92;4.25;;;;;;;;;;6237632;22;20823;-89
2022/11/27 09:43:39;;;;;;;30.02;4.20;;;;;;;;;;6237177;22;20011;-89
2022/11/27 09:46:08;;;;;;;33.53;4.93;;;;;;;;;;6235522;22;20004;-89
2022/11/27 09:48:36;;;;;;;28.00;4.57;;;;;;;;;;6237177;22;20000;-90
2022/11/27 09:51:04;;;;;;;27.08;4.82;;;;;;;;;;6265917;22;19995;-89
2022/11/27 09:53:32;;;;;;;34.85;5.50;;;;;;;;;;6236206;22;20035;-89
2022/11/27 09:56:02;;;;;;;33.35;4.90;;;;;;;;;;6264687;22;19999;-89
2022/11/27 09:58:27;;;;;;;28.05;4.72;;;;;;;;;;6238744;22;20388;-89
2022/11/27 10:00:52;;;;;;;33.57;4.67;;;;;;;;;;6240364;22;20004;-89
2022/11/27 10:03:27;;;;;;;26.80;4.38;;;;;;;;;;6264948;22;20855;-89
2022/11/27 10:06:14;;;;;;;38.50;5.32;;;;;;;;;;6238658;22;20089;-89
2022/11/27 10:09:01;;;;;;;30.90;5.82;;;;;;;;;;6265035;22;20007;-89
2022/11/27 10:11:44;;;;;;;30.90;4.93;;;;;;;;;;6234757;22;20007;-89
2022/11/27 10:14:21;;;;;;;29.92;4.63;;;;;;;;;;6238780;22;20445;-88
2022/11/27 10:16:57;;;;;;;27.90;4.75;;;;;;;;;;6239313;22;20004;-89
2022/11/27 10:19:34;;;;;;;26.85;4.75;;;;;;;;;;6238578;22;20003;-89
2022/11/27 10:25:06;;;;;;;34.60;4.90;;;;;;;;;;6266415;22;19996;-90
2022/11/27 10:27:52;;;;;;;42.05;5.18;;;;;;;;;;6239167;22;20031;-89
2022/11/27 10:30:27;;;;;;;32.05;4.93;;;;;;;;;;6261509;22;20006;-88
2022/11/27 10:32:57;;;;;;;28.83;5.13;;;;;;;;;;6237352;22;20008;-88
2022/11/27 10:35:31;;;;;;;21.58;4.53;;;;;;;;;;6237016;22;20011;-89
2022/11/27 10:38:09;;;;;;;35.28;4.95;;;;;;;;;;6263304;22;20049;-89
2022/11/27 10:40:51;;;;;;;31.65;4.95;;;;;;;;;;6237735;22;20050;-88
2022/11/27 10:43:23;;;;;;;29.25;4.63;;;;;;;;;;6265671;22;20003;-89
2022/11/27 10:46:00;;;;;;;30.70;5.47;;;;;;;;;;6238485;22;20437;-89
2022/11/27 10:48:27;;;;;;;28.23;4.82;;;;;;;;;;6237453;22;20004;-88
2022/11/27 10:50:52;;;;;;;25.25;4.22;;;;;;;;;;6265677;22;19998;-89
2022/11/27 10:53:38;;;;;;;33.92;5.32;;;;;;;;;;6238439;22;20004;-88
2022/11/27 10:56:06;;;;;;;26.13;4.38;;;;;;;;;;6263405;22;20078;-89
2022/11/27 10:58:41;;;;;;;29.73;4.47;;;;;;;;;;6262402;22;19995;-89
2022/11/27 11:01:26;;;;;;;27.80;4.40;;;;;;;;;;6234792;22;20035;-91
2022/11/27 11:04:05;;;;;;;30.42;4.78;;;;;;;;;;6249285;22;20057;-89
2022/11/27 11:06:47;;;;;;;25.95;3.90;;;;;;;;;;6266528;22;20068;-89
2022/11/27 11:09:13;;;;;;;28.05;4.47;;;;;;;;;;6240150;22;20003;-89
2022/11/27 11:11:41;;;;;;;34.65;4.43;;;;;;;;;;6239709;22;20003;-90
2022/11/27 11:14:17;;;;;;;28.15;4.93;;;;;;;;;;6267576;22;20073;-89
2022/11/27 11:17:07;;;;;;;29.10;4.60;;;;;;;;;;6240015;22;20003;-90
2022/11/27 11:19:42;;;;;;;33.47;5.20;;;;;;;;;;6267150;22;20016;-90
2022/11/27 11:22:13;;;;;;;30.17;4.35;;;;;;;;;;6240528;22;20082;-90
2022/11/27 11:24:44;;;;;;;31.38;4.25;;;;;;;;;;6236616;22;20076;-90
2022/11/27 11:27:19;;;;;;;27.17;4.97;;;;;;;;;;6240478;22;20444;-89
2022/11/27 11:29:52;;;;;;;31.05;4.30;;;;;;;;;;6268905;22;20004;-90
2022/11/27 11:32:36;;;;;;;27.27;4.85;;;;;;;;;;6240292;22;20007;-90
2022/11/27 11:35:28;;;;;;;36.38;4.38;;;;;;;;;;6240444;22;20012;-90
2022/11/27 11:38:04;;;;;;;35.13;5.25;;;;;;;;;;6258636;22;19999;-90
2022/11/27 11:40:43;;;;;;;28.85;4.35;;;;;;;;;;6241410;22;20089;-90
2022/11/27 11:43:25;;;;;;;28.85;4.75;;;;;;;;;;6268625;22;20004;-90
2022/11/27 11:46:07;;;;;;;26.50;4.88;;;;;;;;;;6240208;22;20121;-90
2022/11/27 11:49:09;;;;;;;30.58;4.82;;;;;;;;;;6270228;22;20010;-90
2022/11/27 11:51:47;;;;;;;27.58;4.43;;;;;;;;;;6242715;22;20000;-89
2022/11/27 11:54:38;;;;;;;28.35;5.85;;;;;;;;;;6242571;22;20008;-90
2022/11/27 11:57:08;;;;;;;30.95;5.22;;;;;;;;;;6242134;22;20083;-90
2022/11/27 11:59:36;;;;;;;33.88;4.80;;;;;;;;;;6270327;22;20015;-90
2022/11/27 12:02:08;;;;;;;36.30;5.35;;;;;;;;;;6242406;22;20046;-89
2022/11/27 12:04:52;;;;;;;32.20;5.22;;;;;;;;;;6270266;22;20406;-90
2022/11/27 12:07:20;;;;;;;32.88;5.05;;;;;;;;;;6270596;22;20091;-90
2022/11/27 12:10:04;;;;;;;29.45;4.57;;;;;;;;;;6270104;22;20049;-90
2022/11/27 12:12:37;;;;;;;;;;;;;;;;;;6242784;22;20008;-89
2022/11/27 12:15:12;;;;;;;30.17;4.37;;;;;;;;;;6269701;22;19913;-90
2022/11/27 12:17:47;;;;;;;31.98;4.68;;;;;;;;;;6269626;22;20604;-90
2022/11/27 12:20:38;;;;;;;29.40;4.65;;;;;;;;;;6242322;22;20011;-90
2022/11/27 12:23:22;;;;;;;28.00;4.30;;;;;;;;;;6269624;22;20007;-90
2022/11/27 12:26:06;;;;;;;24.27;4.30;;;;;;;;;;6270274;22;20019;-90
2022/11/27 12:28:50;;;;;;;31.13;5.32;;;;;;;;;;6270661;22;20042;-90
2022/11/27 12:31:23;;;;;;;27.90;4.50;;;;;;;;;;6269582;22;20011;-90
2022/11/27 12:34:07;;;;;;;33.40;5.28;;;;;;;;;;6241289;22;20086;-90
2022/11/27 12:36:52;;;;;;;34.35;5.18;;;;;;;;;;6242038;22;20103;-90
2022/11/27 12:39:31;;;;;;;27.92;4.90;;;;;;;;;;6243188;22;20437;-90
2022/11/27 12:42:21;;;;;;;28.88;4.82;;;;;;;;;;6241938;22;20018;-90
2022/11/27 12:44:49;;;;;;;27.17;4.82;;;;;;;;;;6242976;22;20061;-90
2022/11/27 12:47:26;;;;;;;40.17;4.65;;;;;;;;;;6242699;22;20035;-90
2022/11/27 12:50:04;;;;;;;32.08;4.82;;;;;;;;;;6242547;22;20016;-91
2022/11/27 12:52:40;;;;;;;32.38;4.80;;;;;;;;;;6270418;22;20049;-90
2022/11/27 12:55:16;;;;;;;;;;;;;;;;;;;;;
2022/11/27 12:58:00;;;;;;;35.92;4.75;;;;;;;;;;6184622;22;19999;-89
2022/11/27 13:00:42;;;;;;;25.98;4.93;;;;;;;;;;6260055;22;20073;-90
2022/11/27 13:03:29;;;;;;;31.75;4.53;;;;;;;;;;6245687;22;20520;-90
2022/11/27 13:06:09;;;;;;;22.35;4.85;;;;;;;;;;6242236;22;20027;-90
2022/11/27 13:08:46;;;;;;;35.03;5.68;;;;;;;;;;6239771;22;20049;-90
2022/11/27 13:11:19;;;;;;;30.15;5.13;;;;;;;;;;6242340;22;20011;-90
2022/11/27 13:13:47;;;;;;;31.80;4.45;;;;;;;;;;6242351;22;20727;-89
2022/11/27 13:16:29;;;;;;;31.08;5.35;;;;;;;;;;6242186;22;20013;-90
2022/11/27 13:19:12;;;;;;;33.50;4.80;;;;;;;;;;6269124;22;20023;-90
2022/11/27 13:21:46;;;;;;;35.80;4.90;;;;;;;;;;6242495;22;20020;-90
2022/11/27 13:24:14;;;;;;;27.98;4.88;;;;;;;;;;6267161;22;20008;-90
2022/11/27 13:27:03;;;;;;;32.83;5.38;;;;;;;;;;6242132;22;20087;-90
2022/11/27 13:30:07;;;;;;;32.47;5.25;;;;;;;;;;6241264;22;20007;-90
2022/11/27 13:32:41;;;;;;;28.77;5.13;;;;;;;;;;6116925;23;20009;-90
2022/11/27 13:35:17;;;;;;;38.00;5.00;;;;;;;;;;6115124;23;20041;-90
2022/11/27 13:37:46;;;;;;;34.22;5.20;;;;;;;;;;6113737;23;20532;-90
2022/11/27 13:40:32;;;;;;;27.27;4.68;;;;;;;;;;6091423;23;20022;-90
2022/11/27 13:43:03;;;;;;;33.28;5.32;;;;;;;;;;6140056;23;20009;-90
2022/11/27 13:45:47;;;;;;;31.52;4.70;;;;;;;;;;6090199;23;20384;-90
2022/11/27 13:48:42;;;;;;;33.65;5.05;;;;;;;;;;6079800;23;20006;-90
2022/11/27 13:51:19;;;;;;;;;;;;;;;;;;;;;
2022/11/27 13:53:50;;;;;;;36.47;4.93;;;;;;;;;;6110218;23;20069;-90
2022/11/27 13:59:26;;;;;;;33.22;5.07;;;;;;;;;;6115754;23;20021;-90
2022/11/27 14:02:03;;;;;;;27.60;4.60;;;;;;;;;;6116396;23;20014;-89
2022/11/27 14:04:33;;;;;;;27.00;4.82;;;;;;;;;;6238016;22;20015;-89
2022/11/27 14:07:17;;;;;;;26.20;4.75;;;;;;;;;;6241400;22;20004;-90
2022/11/27 14:09:53;;;;;;;30.75;5.28;;;;;;;;;;6241339;22;20038;-90
2022/11/27 14:12:21;;;;;;;28.80;5.45;;;;;;;;;;6243622;22;20003;-90
2022/11/27 14:21:00;;;;;;;29.52;4.55;;;;;;;;;;6267446;22;20034;-90
2022/11/27 14:23:45;;;;;;;31.23;4.57;;;;;;;;;;6269488;22;20053;-90
2022/11/27 14:26:11;;;;;;;25.20;5.38;;;;;;;;;;6189907;22;20086;-90
2022/11/27 14:28:39;;;;;;;27.27;4.68;;;;;;;;;;6269076;22;20920;-89
2022/11/27 14:31:07;;;;;;;22.67;3.65;;;;;;;;;;6269166;22;20038;-90
2022/11/27 14:33:33;;;;;;;34.00;5.20;;;;;;;;;;6241261;22;20087;-90
2022/11/27 14:36:06;;;;;;;23.25;4.53;;;;;;;;;;6239938;22;19999;-90
2022/11/27 14:38:38;;;;;;;29.25;3.97;;;;;;;;;;6275537;22;19995;-90
2022/11/27 14:41:26;;;;;;;37.13;5.10;;;;;;;;;;6248649;22;20425;-91
2022/11/27 14:44:01;;;;;;;26.42;4.30;;;;;;;;;;6254769;22;19999;-91
2022/11/27 14:46:31;;;;;;;24.88;3.88;;;;;;;;;;6214371;23;20155;-90
2022/11/27 14:49:02;;;;;;;31.73;5.28;;;;;;;;;;6215381;23;20009;-90
2022/11/27 14:51:43;;;;;;;26.23;4.10;;;;;;;;;;6214521;23;20026;-92
2022/11/27 14:54:15;;;;;;;24.33;4.57;;;;;;;;;;6216321;23;20066;-90
2022/11/27 14:59:38;;;;;;;26.38;4.40;;;;;;;;;;6215360;23;20025;-91
2022/11/27 15:02:18;;;;;;;29.58;4.82;;;;;;;;;;6215127;23;20795;-90
2022/11/27 15:04:46;;;;;;;32.13;5.07;;;;;;;;;;6237691;22;20119;-90
2022/11/27 15:07:40;;;;;;;24.17;4.05;;;;;;;;;;6214055;23;20027;-90
2022/11/27 15:10:19;;;;;;;23.58;3.78;;;;;;;;;;6244672;23;20000;-90
2022/11/27 15:12:48;;;;;;;27.95;4.25;;;;;;;;;;6234615;23;20015;-90
2022/11/27 15:15:24;;;;;;;29.38;4.55;;;;;;;;;;6235967;23;20060;-90
2022/11/27 15:17:54;;;;;;;26.05;4.45;;;;;;;;;;6271087;22;20007;-90
2022/11/27 15:20:30;;;;;;;24.65;3.80;;;;;;;;;;6268093;22;20015;-89
2022/11/27 15:23:13;;;;;;;24.13;4.15;;;;;;;;;;6271072;22;20035;-90
2022/11/27 15:25:48;;;;;;;30.13;4.97;;;;;;;;;;6275058;22;20002;-91
2022/11/27 15:28:25;;;;;;;29.05;4.32;;;;;;;;;;6270542;22;20000;-91
2022/11/27 15:30:57;;;;;;;24.70;4.70;;;;;;;;;;6269988;22;19999;-90
2022/11/27 15:33:32;;;;;;;33.10;5.55;;;;;;;;;;6270196;22;19999;-90
2022/11/27 15:36:16;;;;;;;29.63;4.95;;;;;;;;;;6309073;22;20010;-90
2022/11/27 15:41:35;;;;;;;29.00;4.18;;;;;;;;;;6282914;22;20011;-91
2022/11/27 15:44:25;;;;;;;24.42;3.97;;;;;;;;;;6273942;22;20027;-91
2022/11/27 15:49:38;;;;;;;27.25;4.88;;;;;;;;;;6237532;23;19996;-91
2022/11/27 15:52:14;;;;;;;29.98;4.65;;;;;;;;;;6210402;23;20043;-89
2022/11/27 15:54:58;;;;;;;26.67;4.45;;;;;;;;;;6207458;23;20612;-92
2022/11/27 15:57:48;;;;;;;26.77;5.97;;;;;;;;;;6211246;23;20335;-93
2022/11/27 16:00:32;;;;;;;;;;;;;;;;;;;;;
2022/11/27 16:03:19;;;;;;;;;;;;;;;;;;;;;
2022/11/27 16:06:03;;;;;;;32.55;5.22;;;;;;;;;;6163280;23;20071;-96
2022/11/27 16:08:57;;;;;;;34.35;4.90;;;;;;;;;;6213938;23;20004;-94
2022/11/27 17:09:28;;;;;;;29.90;4.60;;;;;;;;;;6195232;23;20526;-96
2022/11/27 17:12:11;;;;;;;34.95;4.82;;;;;;;;;;6158783;23;20043;-96
2022/11/27 17:15:08;;;;;;;28.35;4.55;;;;;;;;;;6159642;23;20009;-96
2022/11/27 17:17:43;;;;;;;31.10;5.03;;;;;;;;;;6182024;23;20008;-96
2022/11/27 17:20:41;;;;;;;29.98;4.72;;;;;;;;;;6160349;23;19997;-96
2022/11/27 17:23:47;;;;;;;38.33;6.13;;;;;;;;;;6158362;23;20009;-96